createdAt,value
2023-01-15T00:00:28.074Z,3.8
2023-01-15T00:01:35.388Z,3.8
2023-01-15T00:02:42.318Z,3.7
2023-01-15T00:03:49.506Z,3.7
2023-01-15T00:04:56.406Z,3.5
2023-01-15T00:06:03.772Z,3.5
2023-01-15T00:07:10.780Z,3.4
2023-01-15T00:08:18.222Z,3.3
2023-01-15T00:09:25.583Z,3.4
2023-01-15T00:10:32.766Z,3.3
2023-01-15T00:11:39.884Z,3.3
2023-01-15T00:12:47.091Z,3.1
2023-01-15T00:13:54.274Z,3.3
2023-01-15T00:15:01.302Z,3.4
2023-01-15T00:16:08.443Z,2.9
2023-01-15T00:17:15.558Z,3.4
2023-01-15T00:18:22.735Z,3.4
2023-01-15T00:19:31.020Z,3.2
2023-01-15T00:20:38.126Z,3.3
2023-01-15T00:21:45.277Z,3.9
2023-01-15T00:22:52.258Z,3.9
2023-01-15T00:23:59.407Z,3.7
2023-01-15T00:25:11.669Z,3.9
2023-01-15T00:26:23.954Z,3.6
2023-01-15T00:27:37.082Z,2.9
2023-01-15T00:28:44.329Z,3.3
2023-01-15T00:29:51.526Z,3.2
2023-01-15T00:30:58.538Z,3.3
2023-01-15T00:32:05.601Z,2.8
2023-01-15T00:33:12.746Z,3.2
2023-01-15T00:34:19.887Z,3
2023-01-15T00:35:27.065Z,2.9
2023-01-15T00:36:34.213Z,3.5
2023-01-15T00:37:41.428Z,3.1
2023-01-15T00:38:48.539Z,3.7
2023-01-15T00:39:56.024Z,3.4
2023-01-15T00:41:03.253Z,3.8
2023-01-15T00:42:10.609Z,3.8
2023-01-15T00:43:18.016Z,3.6
2023-01-15T00:44:25.124Z,3.7
2023-01-15T00:45:32.273Z,3.9
2023-01-15T00:46:39.559Z,3.8
2023-01-15T00:47:46.764Z,4.1
2023-01-15T00:48:54.163Z,4
2023-01-15T00:50:01.258Z,4
2023-01-15T00:51:08.389Z,3.6
2023-01-15T00:52:15.573Z,3.5
2023-01-15T00:53:22.763Z,3.7
2023-01-15T00:54:29.992Z,3.5
2023-01-15T00:55:37.068Z,3.6
2023-01-15T00:56:44.207Z,3.3
2023-01-15T00:57:51.593Z,3.2
2023-01-15T00:58:58.382Z,3.2
2023-01-15T01:00:05.683Z,3.3
2023-01-15T01:01:13.329Z,3.5
2023-01-15T01:02:20.369Z,3.1
2023-01-15T01:03:27.475Z,3.3
2023-01-15T01:04:34.630Z,3.3
2023-01-15T01:05:41.840Z,3.3
2023-01-15T01:06:48.972Z,3.2
2023-01-15T01:07:56.010Z,3.5
2023-01-15T01:09:03.185Z,3.4
2023-01-15T01:10:11.099Z,3.3
2023-01-15T01:11:18.407Z,2.9
2023-01-15T01:12:25.974Z,3.6
2023-01-15T01:13:34.400Z,3.2
2023-01-15T01:14:41.504Z,3.2
2023-01-15T01:15:48.643Z,3.9
2023-01-15T01:16:55.651Z,3.7
2023-01-15T01:18:02.815Z,4
2023-01-15T01:19:10.006Z,4.6
2023-01-15T01:20:17.250Z,4.1
2023-01-15T01:21:24.332Z,5.3
2023-01-15T01:22:33.422Z,4
2023-01-15T01:23:41.002Z,3.8
2023-01-15T01:24:48.328Z,3.3
2023-01-15T01:25:55.301Z,3.6
2023-01-15T01:27:02.467Z,3.5
2023-01-15T01:28:09.903Z,3.1
2023-01-15T01:29:16.828Z,3.7
2023-01-15T01:30:23.892Z,3.2
2023-01-15T01:31:31.123Z,4.1
2023-01-15T01:32:38.182Z,3.6
2023-01-15T01:33:48.407Z,4
2023-01-15T01:34:55.365Z,3.4
2023-01-15T01:36:02.583Z,3.4
2023-01-15T01:37:09.702Z,3.3
2023-01-15T01:38:16.853Z,3.4
2023-01-15T01:39:23.974Z,3.3
2023-01-15T01:40:31.157Z,3
2023-01-15T01:41:38.297Z,3.6
2023-01-15T01:42:45.505Z,3.4
2023-01-15T01:43:52.730Z,3.8
2023-01-15T01:45:07.740Z,3.4
2023-01-15T01:46:20.475Z,3.8
2023-01-15T01:47:27.690Z,3.6
2023-01-15T01:48:34.923Z,3.6
2023-01-15T01:49:42.111Z,3.3
2023-01-15T01:50:49.078Z,3.8
2023-01-15T01:51:56.037Z,3.2
2023-01-15T01:53:03.239Z,3.2
2023-01-15T01:54:10.407Z,3.4
2023-01-15T01:55:17.592Z,3.1
2023-01-15T01:56:24.706Z,3.3
2023-01-15T01:57:31.855Z,3.4
2023-01-15T01:58:39.280Z,3.6
2023-01-15T01:59:46.168Z,3.6
2023-01-15T02:00:53.275Z,3.3
2023-01-15T02:02:00.483Z,3.5
2023-01-15T02:03:07.522Z,3.5
2023-01-15T02:04:15.607Z,3.4
2023-01-15T02:05:22.850Z,3.2
2023-01-15T02:06:33.089Z,3.5
2023-01-15T02:07:40.257Z,3.3
2023-01-15T02:08:47.341Z,3.4
2023-01-15T02:09:54.354Z,3.6
2023-01-15T02:11:01.556Z,3.7
2023-01-15T02:12:08.865Z,3.8
2023-01-15T02:13:26.042Z,3.9
2023-01-15T02:14:38.353Z,3.9
2023-01-15T02:15:56.005Z,3.4
2023-01-15T02:17:11.312Z,4
2023-01-15T02:18:21.480Z,3.8
2023-01-15T02:19:31.243Z,3.6
2023-01-15T02:20:43.480Z,3.5
2023-01-15T02:22:00.737Z,3.3
2023-01-15T02:23:07.853Z,3.8
2023-01-15T02:24:23.161Z,3.2
2023-01-15T02:25:35.421Z,3
2023-01-15T02:26:52.771Z,3.3
2023-01-15T02:28:04.881Z,3.3
2023-01-15T02:29:14.625Z,3.2
2023-01-15T02:30:21.758Z,3.3
2023-01-15T02:31:28.908Z,3
2023-01-15T02:32:41.201Z,3.1
2023-01-15T02:33:53.378Z,3.3
2023-01-15T02:35:02.960Z,3.2
2023-01-15T02:36:17.885Z,2.9
2023-01-15T02:37:25.000Z,3.2
2023-01-15T02:38:32.027Z,2.9
2023-01-15T02:39:39.230Z,2.5
2023-01-15T02:40:46.404Z,2.9
2023-01-15T02:41:53.604Z,2.7
2023-01-15T02:43:00.664Z,2.4
2023-01-15T02:44:07.816Z,2.7
2023-01-15T02:45:14.836Z,2.5
2023-01-15T02:46:22.106Z,2.9
2023-01-15T02:47:29.163Z,2.6
2023-01-15T02:48:36.288Z,2.6
2023-01-15T02:49:43.594Z,2.5
2023-01-15T02:50:50.629Z,2.5
2023-01-15T02:52:00.734Z,2.6
2023-01-15T02:53:10.445Z,2.7
2023-01-15T02:54:17.573Z,2.4
2023-01-15T02:55:24.786Z,2.5
2023-01-15T02:56:31.889Z,2.9
2023-01-15T02:57:41.650Z,2.4
2023-01-15T02:58:48.845Z,2.4
2023-01-15T02:59:55.817Z,2.4
2023-01-15T03:01:03.023Z,2.5
2023-01-15T03:02:13.260Z,2.3
2023-01-15T03:03:22.915Z,2.1
2023-01-15T03:04:29.980Z,2
2023-01-15T03:05:45.256Z,2.6
2023-01-15T03:06:52.693Z,2.6
2023-01-15T03:08:02.628Z,1.9
2023-01-15T03:09:09.881Z,2.4
2023-01-15T03:10:16.843Z,2.2
2023-01-15T03:11:23.977Z,2.5
2023-01-15T03:12:31.116Z,2.2
2023-01-15T03:13:41.372Z,2.3
2023-01-15T03:14:53.585Z,2.5
2023-01-15T03:16:10.846Z,2.1
2023-01-15T03:17:25.585Z,2.3
2023-01-15T03:18:37.836Z,2.5
2023-01-15T03:19:50.629Z,2.1
2023-01-15T03:20:58.903Z,2
2023-01-15T03:22:04.743Z,2.3
2023-01-15T03:23:20.124Z,2.2
2023-01-15T03:24:27.265Z,2.6
2023-01-15T03:25:36.945Z,2.4
2023-01-15T03:26:44.077Z,2.6
2023-01-15T03:27:51.266Z,2.2
2023-01-15T03:28:58.170Z,2.3
2023-01-15T03:30:05.300Z,2.5
2023-01-15T03:31:17.636Z,2
2023-01-15T03:32:24.792Z,2.2
2023-01-15T03:33:32.001Z,2.1
2023-01-15T03:34:39.148Z,2.1
2023-01-15T03:35:49.289Z,2.2
2023-01-15T03:36:59.403Z,2.2
2023-01-15T03:38:06.532Z,2
2023-01-15T03:39:13.640Z,2.2
2023-01-15T03:40:20.774Z,2.3
2023-01-15T03:41:27.950Z,2.1
2023-01-15T03:42:43.228Z,2.2
2023-01-15T03:43:53.549Z,2.2
2023-01-15T03:45:06.125Z,1.9
2023-01-15T03:46:15.871Z,2
2023-01-15T03:47:31.121Z,2.8
2023-01-15T03:48:43.402Z,2.2
2023-01-15T03:49:50.445Z,2
2023-01-15T03:51:00.555Z,2.2
2023-01-15T03:52:15.872Z,2.1
2023-01-15T03:53:33.123Z,1.8
2023-01-15T03:54:48.757Z,2.2
2023-01-15T03:55:55.958Z,1.9
2023-01-15T03:57:03.124Z,1.9
2023-01-15T03:58:13.356Z,2.2
2023-01-15T03:59:23.062Z,1.9
2023-01-15T04:00:30.200Z,2.3
2023-01-15T04:01:37.544Z,2
2023-01-15T04:02:44.609Z,1.7
2023-01-15T04:03:51.728Z,1.9
2023-01-15T04:04:58.641Z,2.1
2023-01-15T04:06:05.848Z,1.8
2023-01-15T04:07:12.971Z,1.9
2023-01-15T04:08:20.165Z,1.8
2023-01-15T04:09:27.284Z,1.9
2023-01-15T04:10:34.852Z,1.8
2023-01-15T04:11:41.626Z,2.3
2023-01-15T04:12:48.843Z,1.9
2023-01-15T04:13:55.765Z,1.9
2023-01-15T04:15:02.968Z,1.9
2023-01-15T04:16:10.604Z,2.4
2023-01-15T04:17:17.818Z,1.9
2023-01-15T04:18:24.962Z,1.7
2023-01-15T04:19:32.064Z,1.9
2023-01-15T04:20:39.279Z,2.2
2023-01-15T04:21:46.440Z,1.9
2023-01-15T04:22:53.588Z,1.8
2023-01-15T04:24:00.543Z,2.3
2023-01-15T04:25:08.296Z,2.2
2023-01-15T04:26:15.368Z,2
2023-01-15T04:27:22.513Z,2.3
2023-01-15T04:28:29.738Z,2.7
2023-01-15T04:29:36.911Z,2.2
2023-01-15T04:30:44.050Z,2
2023-01-15T04:31:51.202Z,2
2023-01-15T04:32:58.137Z,2.1
2023-01-15T04:34:05.233Z,2.3
2023-01-15T04:35:12.521Z,2.3
2023-01-15T04:36:19.794Z,2.7
2023-01-15T04:37:26.716Z,2.8
2023-01-15T04:38:33.885Z,3.1
2023-01-15T04:39:41.023Z,3.4
2023-01-15T04:40:48.259Z,2.8
2023-01-15T04:42:00.285Z,2.9
2023-01-15T04:43:15.604Z,2.7
2023-01-15T04:44:27.953Z,2.8
2023-01-15T04:45:35.248Z,2.5
2023-01-15T04:46:42.263Z,2.1
2023-01-15T04:47:49.356Z,2.3
2023-01-15T04:48:56.388Z,2
2023-01-15T04:50:03.484Z,2.3
2023-01-15T04:51:10.812Z,2.3
2023-01-15T04:52:17.803Z,2
2023-01-15T04:53:24.936Z,2.2
2023-01-15T04:54:32.071Z,2.4
2023-01-15T04:55:39.254Z,2.2
2023-01-15T04:56:46.435Z,2.1
2023-01-15T04:57:56.423Z,2.6
2023-01-15T04:59:03.639Z,2.1
2023-01-15T05:00:10.770Z,2.2
2023-01-15T05:01:17.982Z,2.2
2023-01-15T05:02:25.209Z,2
2023-01-15T05:03:32.168Z,2.1
2023-01-15T05:04:39.539Z,2.5
2023-01-15T05:05:46.571Z,2.4
2023-01-15T05:06:53.703Z,2.6
2023-01-15T05:08:00.627Z,2.9
2023-01-15T05:09:07.788Z,2.3
2023-01-15T05:10:14.974Z,2.6
2023-01-15T05:11:22.184Z,2.3
2023-01-15T05:12:29.423Z,2.6
2023-01-15T05:13:36.397Z,2.4
2023-01-15T05:14:43.594Z,2.5
2023-01-15T05:15:50.736Z,2.5
2023-01-15T05:16:57.708Z,2.3
2023-01-15T05:18:04.994Z,2.5
2023-01-15T05:19:12.057Z,2.6
2023-01-15T05:20:19.160Z,2.5
2023-01-15T05:21:26.264Z,2.4
2023-01-15T05:22:33.446Z,2.5
2023-01-15T05:23:40.640Z,2.5
2023-01-15T05:24:47.839Z,2.3
2023-01-15T05:25:54.868Z,2.4
2023-01-15T05:27:01.901Z,2.4
2023-01-15T05:28:09.055Z,2.4
2023-01-15T05:29:16.198Z,2.6
2023-01-15T05:30:23.418Z,2.7
2023-01-15T05:31:30.559Z,2.5
2023-01-15T05:32:37.648Z,2.7
2023-01-15T05:33:44.837Z,3
2023-01-15T05:34:51.955Z,2.9
2023-01-15T05:35:58.996Z,3.1
2023-01-15T05:37:09.124Z,3.1
2023-01-15T05:38:16.336Z,3.2
2023-01-15T05:39:23.624Z,3
2023-01-15T05:40:30.607Z,3.5
2023-01-15T05:41:37.788Z,3.2
2023-01-15T05:42:50.169Z,3.3
2023-01-15T05:43:57.497Z,3.1
2023-01-15T05:45:04.686Z,3.5
2023-01-15T05:46:12.276Z,3.3
2023-01-15T05:47:19.468Z,3.3
2023-01-15T05:48:26.806Z,3.7
2023-01-15T05:49:33.856Z,3.6
2023-01-15T05:50:40.885Z,3.3
2023-01-15T05:51:48.102Z,3.3
2023-01-15T05:52:55.222Z,3.6
2023-01-15T05:54:02.189Z,4
2023-01-15T05:55:09.412Z,4
2023-01-15T05:56:16.500Z,3.8
2023-01-15T05:57:23.648Z,4.9
2023-01-15T05:58:30.811Z,5
2023-01-15T05:59:38.012Z,5
2023-01-15T06:00:45.092Z,5.3
2023-01-15T06:01:52.403Z,5.1
2023-01-15T06:02:59.775Z,5.5
2023-01-15T06:04:06.900Z,5.9
2023-01-15T06:05:14.064Z,6.1
2023-01-15T06:06:21.116Z,5.9
2023-01-15T06:07:28.308Z,6.3
2023-01-15T06:08:35.573Z,6.4
2023-01-15T06:09:42.669Z,6.1
2023-01-15T06:10:49.817Z,5.9
2023-01-15T06:11:56.874Z,6.2
2023-01-15T06:13:03.961Z,5.9
2023-01-15T06:14:11.098Z,6.3
2023-01-15T06:15:18.284Z,5.9
2023-01-15T06:16:25.432Z,6.4
2023-01-15T06:17:32.588Z,5.9
2023-01-15T06:18:39.747Z,5.2
2023-01-15T06:19:46.896Z,5.2
2023-01-15T06:20:53.972Z,4.8
2023-01-15T06:22:01.170Z,5
2023-01-15T06:23:08.056Z,4.8
2023-01-15T06:24:15.218Z,4.3
2023-01-15T06:25:22.346Z,4.3
2023-01-15T06:26:29.515Z,4.9
2023-01-15T06:27:36.699Z,4.9
2023-01-15T06:28:43.804Z,5.2
2023-01-15T06:29:50.981Z,5.8
2023-01-15T06:30:57.963Z,5.4
2023-01-15T06:32:05.060Z,5.9
2023-01-15T06:33:12.303Z,5.6
2023-01-15T06:34:19.438Z,6.4
2023-01-15T06:35:26.564Z,6.5
2023-01-15T06:36:33.645Z,5.7
2023-01-15T06:37:40.873Z,5.5
2023-01-15T06:38:47.981Z,5.8
2023-01-15T06:39:55.142Z,5.3
2023-01-15T06:41:02.341Z,5.3
2023-01-15T06:42:09.324Z,5.4
2023-01-15T06:43:21.557Z,5.6
2023-01-15T06:44:33.780Z,5
2023-01-15T06:45:45.972Z,5.6
2023-01-15T06:46:58.120Z,5.5
2023-01-15T06:48:15.458Z,5.7
2023-01-15T06:49:22.753Z,5.4
2023-01-15T06:50:29.802Z,5.4
2023-01-15T06:51:36.899Z,5.5
2023-01-15T06:52:44.020Z,5.7
2023-01-15T06:53:51.154Z,5.1
2023-01-15T06:54:58.212Z,5.4
2023-01-15T06:56:05.430Z,5.9
2023-01-15T06:57:12.698Z,5.5
2023-01-15T06:58:20.180Z,5.2
2023-01-15T06:59:27.311Z,5.9
2023-01-15T07:00:34.568Z,5.7
2023-01-15T07:01:41.593Z,5.5
2023-01-15T07:02:48.844Z,6
2023-01-15T07:03:56.053Z,5.8
2023-01-15T07:05:02.945Z,5.5
2023-01-15T07:06:10.013Z,5.5
2023-01-15T07:07:17.184Z,6.2
2023-01-15T07:08:24.344Z,5.8
2023-01-15T07:09:31.716Z,5.6
2023-01-15T07:10:38.620Z,5.7
2023-01-15T07:11:45.776Z,5.2
2023-01-15T07:12:53.019Z,5.3
2023-01-15T07:14:00.459Z,5.6
2023-01-15T07:15:10.132Z,5.5
2023-01-15T07:16:17.298Z,5.5
2023-01-15T07:17:29.483Z,5.7
2023-01-15T07:18:36.758Z,6
2023-01-15T07:19:43.878Z,5.4
2023-01-15T07:20:50.960Z,5.5
2023-01-15T07:21:57.884Z,5.9
2023-01-15T07:23:05.079Z,5.7
2023-01-15T07:24:12.269Z,5.7
2023-01-15T07:25:19.378Z,6.2
2023-01-15T07:26:26.751Z,5.9
2023-01-15T07:27:33.668Z,6.1
2023-01-15T07:28:40.811Z,6.3
2023-01-15T07:29:47.844Z,6.5
2023-01-15T07:30:55.033Z,6.8
2023-01-15T07:32:02.162Z,6.3
2023-01-15T07:33:09.266Z,7.2
2023-01-15T07:34:16.353Z,6.8
2023-01-15T07:35:23.516Z,7.3
2023-01-15T07:36:30.665Z,7.6
2023-01-15T07:37:37.833Z,7.8
2023-01-15T07:38:45.012Z,7.3
2023-01-15T07:39:52.348Z,6.4
2023-01-15T07:40:59.576Z,7.8
2023-01-15T07:42:12.049Z,7.2
2023-01-15T07:43:24.322Z,6.9
2023-01-15T07:44:36.325Z,6.3
2023-01-15T07:45:48.634Z,6.8
2023-01-15T07:47:00.725Z,6.8
2023-01-15T07:48:16.112Z,7.5
2023-01-15T07:49:28.263Z,6.7
2023-01-15T07:50:40.468Z,6.4
2023-01-15T07:51:47.722Z,6.5
2023-01-15T07:52:54.968Z,7.1
2023-01-15T07:54:02.002Z,8
2023-01-15T07:55:08.964Z,7.6
2023-01-15T07:56:16.129Z,5.7
2023-01-15T07:57:23.304Z,6.5
2023-01-15T07:58:30.459Z,6.1
2023-01-15T07:59:37.676Z,5.3
2023-01-15T08:00:44.977Z,5.2
2023-01-15T08:01:52.115Z,5
2023-01-15T08:02:58.884Z,4.7
2023-01-15T08:04:06.170Z,4.7
2023-01-15T08:05:16.296Z,4.6
2023-01-15T08:06:23.388Z,4.5
2023-01-15T08:07:30.574Z,4.5
2023-01-15T08:08:40.785Z,4.7
2023-01-15T08:09:47.971Z,4.3
2023-01-15T08:10:54.988Z,4.3
2023-01-15T08:12:07.767Z,4.4
2023-01-15T08:13:19.855Z,4.1
2023-01-15T08:14:32.148Z,4.2
2023-01-15T08:15:44.397Z,4.2
2023-01-15T08:16:51.483Z,4.4
2023-01-15T08:17:58.539Z,4.2
2023-01-15T08:19:05.695Z,4.2
2023-01-15T08:20:13.114Z,3.8
2023-01-15T08:21:19.923Z,4.2
2023-01-15T08:22:27.071Z,4.4
2023-01-15T08:23:34.232Z,4.2
2023-01-15T08:24:41.384Z,3.5
2023-01-15T08:25:48.771Z,4.1
2023-01-15T08:26:55.715Z,3.9
2023-01-15T08:28:03.301Z,4
2023-01-15T08:29:10.287Z,3.7
2023-01-15T08:30:17.470Z,4.1
2023-01-15T08:31:24.783Z,4.3
2023-01-15T08:32:32.001Z,4
2023-01-15T08:33:39.346Z,4.5
2023-01-15T08:34:46.182Z,4
2023-01-15T08:35:53.638Z,3.9
2023-01-15T08:37:00.880Z,4
2023-01-15T08:38:07.935Z,3.8
2023-01-15T08:39:15.245Z,4
2023-01-15T08:40:22.378Z,4.3
2023-01-15T08:41:29.411Z,4.2
2023-01-15T08:42:36.594Z,4.3
2023-01-15T08:43:43.707Z,4.1
2023-01-15T08:44:50.928Z,4.4
2023-01-15T08:45:58.290Z,4.3
2023-01-15T08:47:05.567Z,4.1
2023-01-15T08:48:12.680Z,4.6
2023-01-15T08:49:19.855Z,4.5
2023-01-15T08:50:26.974Z,4.7
2023-01-15T08:51:34.155Z,4.6
2023-01-15T08:52:41.510Z,4.7
2023-01-15T08:53:49.322Z,4.5
2023-01-15T08:54:56.638Z,4.5
2023-01-15T08:56:03.557Z,4.4
2023-01-15T08:57:15.674Z,5.1
2023-01-15T08:58:22.959Z,4.6
2023-01-15T08:59:33.073Z,4.3
2023-01-15T09:00:40.294Z,4
2023-01-15T09:01:47.635Z,4.1
2023-01-15T09:02:54.614Z,4.3
2023-01-15T09:04:01.576Z,4.2
2023-01-15T09:05:09.709Z,4.7
2023-01-15T09:06:16.875Z,4.6
2023-01-15T09:07:24.128Z,3.8
2023-01-15T09:08:31.188Z,3.5
2023-01-15T09:09:38.383Z,4
2023-01-15T09:10:45.507Z,4.5
2023-01-15T09:11:52.708Z,4.6
2023-01-15T09:12:59.563Z,4.3
2023-01-15T09:14:06.714Z,4.1
2023-01-15T09:15:13.911Z,3.9
2023-01-15T09:16:21.090Z,3.9
2023-01-15T09:17:28.377Z,3.7
2023-01-15T09:18:35.635Z,3.8
2023-01-15T09:19:42.496Z,4.2
2023-01-15T09:20:49.706Z,3.9
2023-01-15T09:21:56.775Z,3.5
2023-01-15T09:23:03.989Z,3.3
2023-01-15T09:24:10.960Z,3.7
2023-01-15T09:25:18.058Z,3.3
2023-01-15T09:26:25.178Z,3.4
2023-01-15T09:27:32.367Z,3.4
2023-01-15T09:28:39.537Z,4
2023-01-15T09:29:46.677Z,3.7
2023-01-15T09:30:53.964Z,4.2
2023-01-15T09:32:01.202Z,4.3
2023-01-15T09:33:08.358Z,4.2
2023-01-15T09:34:15.539Z,4.3
2023-01-15T09:35:22.712Z,3.7
2023-01-15T09:36:29.760Z,3.4
2023-01-15T09:37:36.982Z,3
2023-01-15T09:38:44.140Z,3.6
2023-01-15T09:39:51.299Z,3.1
2023-01-15T09:40:58.434Z,2.9
2023-01-15T09:42:05.388Z,2.6
2023-01-15T09:43:15.058Z,2.8
2023-01-15T09:44:27.250Z,3.5
2023-01-15T09:45:39.545Z,2.5
2023-01-15T09:46:46.684Z,3.4
2023-01-15T09:47:58.795Z,3.4
2023-01-15T09:49:11.092Z,3.5
2023-01-15T09:50:23.541Z,2.8
2023-01-15T09:51:39.234Z,3.3
2023-01-15T09:52:56.510Z,2.7
2023-01-15T09:54:11.637Z,2.9
2023-01-15T09:55:21.389Z,3.1
2023-01-15T09:56:28.525Z,3.2
2023-01-15T09:57:35.924Z,2.8
2023-01-15T09:58:43.069Z,2.6
2023-01-15T09:59:49.983Z,3.4
2023-01-15T10:00:57.180Z,3
2023-01-15T10:02:04.178Z,3
2023-01-15T10:03:16.434Z,2.9
2023-01-15T10:04:28.679Z,3.5
2023-01-15T10:05:40.927Z,3.6
2023-01-15T10:06:48.135Z,3
2023-01-15T10:07:55.195Z,3.4
2023-01-15T10:09:07.268Z,3.3
2023-01-15T10:10:16.802Z,3.5
2023-01-15T10:11:22.159Z,3.2
2023-01-15T10:12:32.357Z,3
2023-01-15T10:13:39.441Z,3.1
2023-01-15T10:14:52.223Z,2.7
2023-01-15T10:16:09.532Z,3.2
2023-01-15T10:17:16.823Z,2.9
2023-01-15T10:18:31.920Z,3
2023-01-15T10:19:44.545Z,3.5
2023-01-15T10:20:46.286Z,3.1
2023-01-15T10:21:58.440Z,3.1
2023-01-15T10:23:14.119Z,3
2023-01-15T10:24:31.445Z,3.5
2023-01-15T10:25:41.727Z,3.1
2023-01-15T10:26:53.865Z,3.2
2023-01-15T10:28:00.879Z,3.3
2023-01-15T10:29:10.621Z,2.9
2023-01-15T10:30:20.807Z,2.8
2023-01-15T10:31:36.098Z,3.9
2023-01-15T10:33:01.362Z,3.3
2023-01-15T10:33:58.592Z,2.9
2023-01-15T10:35:13.697Z,3.2
2023-01-15T10:36:31.071Z,3.2
2023-01-15T10:37:45.904Z,3.1
2023-01-15T10:39:03.529Z,3.3
2023-01-15T10:40:20.897Z,3.9
2023-01-15T10:41:38.358Z,3.7
2023-01-15T10:42:55.622Z,3.7
2023-01-15T10:44:13.388Z,3.7
2023-01-15T10:45:28.024Z,4.7
2023-01-15T10:46:37.758Z,4.1
2023-01-15T10:47:44.902Z,4.3
2023-01-15T10:48:52.177Z,11.2
2023-01-15T10:49:59.210Z,5.2
2023-01-15T10:51:06.145Z,5.5
2023-01-15T10:52:15.898Z,4.6
2023-01-15T10:53:26.038Z,4.1
2023-01-15T10:54:38.398Z,5.2
2023-01-15T10:55:45.472Z,4
2023-01-15T10:57:00.634Z,4.6
2023-01-15T10:58:11.267Z,8.9
2023-01-15T10:59:17.993Z,4.9
2023-01-15T11:00:38.348Z,6.4
2023-01-15T11:01:45.640Z,4
2023-01-15T11:02:55.686Z,4.1
2023-01-15T11:04:05.802Z,3.9
2023-01-15T11:05:16.050Z,4.6
2023-01-15T11:06:23.060Z,4.8
2023-01-15T11:07:30.226Z,4.4
2023-01-15T11:09:07.728Z,6.3
2023-01-15T11:09:54.718Z,5.5
2023-01-15T11:11:01.874Z,4.7
2023-01-15T11:12:17.182Z,4.9
2023-01-15T11:13:29.403Z,7.1
2023-01-15T11:14:41.681Z,6.1
2023-01-15T11:15:53.989Z,10.1
2023-01-15T11:17:06.095Z,5.4
2023-01-15T11:18:18.414Z,8.1
2023-01-15T11:19:30.414Z,4.4
2023-01-15T11:20:40.605Z,6
2023-01-15T11:21:47.740Z,5.4
2023-01-15T11:22:54.962Z,4.5
2023-01-15T11:24:02.003Z,4.9
2023-01-15T11:25:09.601Z,8.5
2023-01-15T11:26:16.723Z,6.1
2023-01-15T11:27:27.004Z,7.1
2023-01-15T11:28:34.170Z,6.1
2023-01-15T11:29:41.322Z,5.9
2023-01-15T11:30:48.406Z,3.8
2023-01-15T11:31:58.730Z,4
2023-01-15T11:33:05.798Z,5.2
2023-01-15T11:34:23.074Z,5.5
2023-01-15T11:35:30.162Z,4.7
2023-01-15T11:36:37.401Z,4.9
2023-01-15T11:37:44.702Z,4.4
2023-01-15T11:38:51.638Z,4.9
2023-01-15T11:39:58.781Z,4
2023-01-15T11:41:05.728Z,4.3
2023-01-15T11:42:23.217Z,4
2023-01-15T11:43:35.365Z,4.5
2023-01-15T11:44:47.560Z,8
2023-01-15T11:45:59.914Z,4.6
2023-01-15T11:47:19.597Z,5
2023-01-15T11:48:29.378Z,5.5
2023-01-15T11:49:46.750Z,5.3
2023-01-15T11:50:59.043Z,5.2
2023-01-15T11:52:12.029Z,7
2023-01-15T11:53:24.714Z,8
2023-01-15T11:54:31.915Z,4.3
2023-01-15T11:55:44.211Z,5.1
2023-01-15T11:56:56.476Z,6.5
2023-01-15T11:58:03.451Z,6.7
2023-01-15T11:59:10.505Z,6.9
2023-01-15T12:00:20.160Z,6.6
2023-01-15T12:01:32.536Z,10.6
2023-01-15T12:02:39.569Z,6.6
2023-01-15T12:03:49.361Z,7.8
2023-01-15T12:04:56.387Z,5.2
2023-01-15T12:06:03.506Z,5.7
2023-01-15T12:07:10.714Z,4.2
2023-01-15T12:08:17.793Z,4.3
2023-01-15T12:09:27.978Z,4.1
2023-01-15T12:10:38.205Z,4.8
2023-01-15T12:11:53.482Z,4.9
2023-01-15T12:13:08.141Z,3.9
2023-01-15T12:14:17.850Z,4.1
2023-01-15T12:15:35.223Z,3.5
2023-01-15T12:16:47.478Z,4.4
2023-01-15T12:18:04.720Z,3.8
2023-01-15T12:19:21.999Z,4
2023-01-15T12:20:39.418Z,4
2023-01-15T12:21:51.654Z,3.4
2023-01-15T12:23:08.875Z,3.8
2023-01-15T12:24:22.121Z,3.6
2023-01-15T12:25:34.311Z,4.4
2023-01-15T12:26:41.591Z,4.5
2023-01-15T12:27:51.238Z,4.1
2023-01-15T12:28:58.464Z,4.2
2023-01-15T12:30:08.464Z,4.1
2023-01-15T12:31:20.727Z,4.3
2023-01-15T12:32:27.714Z,3.9
2023-01-15T12:33:34.878Z,5.4
2023-01-15T12:34:42.062Z,5.1
2023-01-15T12:35:59.603Z,4.4
2023-01-15T12:37:06.898Z,4.4
2023-01-15T12:38:19.613Z,4.2
2023-01-15T12:39:31.886Z,5.8
2023-01-15T12:40:44.095Z,5.7
2023-01-15T12:41:51.358Z,5.6
2023-01-15T12:43:08.981Z,5
2023-01-15T12:44:21.219Z,3.9
2023-01-15T12:45:43.786Z,4.8
2023-01-15T12:46:50.771Z,6.1
2023-01-15T12:47:58.006Z,3.8
2023-01-15T12:49:15.602Z,4.7
2023-01-15T12:50:25.275Z,7.1
2023-01-15T12:51:32.460Z,4.3
2023-01-15T12:52:47.816Z,5.2
2023-01-15T12:53:54.899Z,5.8
2023-01-15T12:55:06.980Z,4.8
2023-01-15T12:56:19.250Z,11.6
2023-01-15T12:57:31.679Z,8.5
2023-01-15T12:58:38.645Z,4.1
2023-01-15T12:59:50.931Z,4.5
2023-01-15T13:00:58.228Z,6.8
2023-01-15T13:02:13.217Z,4.5
2023-01-15T13:03:20.413Z,3.9
2023-01-15T13:04:30.573Z,4
2023-01-15T13:05:37.729Z,4.6
2023-01-15T13:06:50.087Z,7.3
2023-01-15T13:07:57.017Z,4.7
2023-01-15T13:09:12.216Z,7.1
2023-01-15T13:10:21.970Z,5.5
2023-01-15T13:11:31.735Z,3.6
2023-01-15T13:12:38.775Z,4.1
2023-01-15T13:13:45.976Z,3.8
2023-01-15T13:14:53.164Z,3.3
2023-01-15T13:16:00.346Z,5.4
2023-01-15T13:17:10.337Z,4.6
2023-01-15T13:18:25.000Z,4.2
2023-01-15T13:19:29.771Z,4.3
2023-01-15T13:20:42.064Z,6.4
2023-01-15T13:21:51.896Z,6.5
2023-01-15T13:22:58.834Z,9.7
2023-01-15T13:24:11.535Z,5.9
2023-01-15T13:25:29.819Z,16.4
2023-01-15T13:26:36.003Z,5.9
2023-01-15T13:27:51.244Z,5.8
2023-01-15T13:29:06.526Z,4.6
2023-01-15T13:30:18.708Z,6.7
2023-01-15T13:31:31.154Z,5.1
2023-01-15T13:32:46.239Z,5.1
2023-01-15T13:33:53.479Z,8.6
2023-01-15T13:35:00.655Z,9.5
2023-01-15T13:36:16.240Z,9.9
2023-01-15T13:37:28.484Z,5.6
2023-01-15T13:38:39.379Z,6.4
2023-01-15T13:39:47.263Z,4.6
2023-01-15T13:40:54.798Z,7.7
2023-01-15T13:42:02.139Z,5.7
2023-01-15T13:43:14.479Z,8.2
2023-01-15T13:44:26.585Z,7.1
2023-01-15T13:45:33.751Z,8.3
2023-01-15T13:46:46.011Z,7.7
2023-01-15T13:48:03.192Z,7.6
2023-01-15T13:49:15.939Z,5.3
2023-01-15T13:50:26.132Z,5.9
2023-01-15T13:51:38.667Z,7.2
2023-01-15T13:52:45.531Z,5.9
2023-01-15T13:53:52.939Z,7.8
2023-01-15T13:54:59.940Z,6.6
2023-01-15T13:56:17.067Z,6.1
2023-01-15T13:57:29.556Z,7.7
2023-01-15T13:58:39.505Z,5.3
2023-01-15T13:59:54.879Z,4.8
2023-01-15T14:01:01.988Z,5.9
2023-01-15T14:02:11.472Z,4.8
2023-01-15T14:03:26.804Z,4.7
2023-01-15T14:04:34.015Z,4.4
2023-01-15T14:05:41.204Z,4.9
2023-01-15T14:06:48.260Z,4.5
2023-01-15T14:07:55.470Z,4.1
2023-01-15T14:09:02.391Z,5.1
2023-01-15T14:10:10.633Z,4.7
2023-01-15T14:11:20.235Z,3.6
2023-01-15T14:12:38.285Z,4.9
2023-01-15T14:13:54.243Z,4.2
2023-01-15T14:15:09.634Z,4.9
2023-01-15T14:16:24.484Z,4.4
2023-01-15T14:17:39.842Z,5.9
2023-01-15T14:18:57.146Z,5.2
2023-01-15T14:20:12.191Z,5.2
2023-01-15T14:21:27.657Z,4.6
2023-01-15T14:22:40.352Z,4.2
2023-01-15T14:23:53.094Z,4
2023-01-15T14:25:08.387Z,4.6
2023-01-15T14:26:21.527Z,4
2023-01-15T14:27:38.891Z,3.8
2023-01-15T14:28:54.198Z,3.9
2023-01-15T14:30:09.423Z,4.1
2023-01-15T14:31:20.086Z,4.2
2023-01-15T14:32:37.347Z,4.6
2023-01-15T14:33:54.674Z,4.5
2023-01-15T14:35:01.909Z,4
2023-01-15T14:36:08.854Z,3.8
2023-01-15T14:37:21.630Z,3.9
2023-01-15T14:38:33.863Z,4
2023-01-15T14:39:40.977Z,3.7
2023-01-15T14:40:53.851Z,3.6
2023-01-15T14:42:04.002Z,3.8
2023-01-15T14:43:19.159Z,3.8
2023-01-15T14:44:26.256Z,3.9
2023-01-15T14:45:33.464Z,4.5
2023-01-15T14:46:43.747Z,6.3
2023-01-15T14:47:50.832Z,6.3
2023-01-15T14:48:57.778Z,6.6
2023-01-15T14:50:05.087Z,6.1
2023-01-15T14:51:22.570Z,5
2023-01-15T14:52:32.895Z,6.3
2023-01-15T14:53:40.186Z,6.6
2023-01-15T14:54:47.742Z,6
2023-01-15T14:55:54.955Z,5.2
2023-01-15T14:57:04.958Z,5
2023-01-15T14:58:12.098Z,4.9
2023-01-15T14:59:27.649Z,4.9
2023-01-15T15:00:40.165Z,5.7
2023-01-15T15:01:47.705Z,6
2023-01-15T15:02:54.563Z,5.8
2023-01-15T15:04:01.639Z,5
2023-01-15T15:05:14.217Z,4.9
2023-01-15T15:06:21.295Z,4.2
2023-01-15T15:07:28.702Z,5.1
2023-01-15T15:08:38.442Z,4.8
2023-01-15T15:09:45.338Z,5.1
2023-01-15T15:10:57.499Z,5.5
2023-01-15T15:12:04.588Z,5.2
2023-01-15T15:13:22.010Z,4.8
2023-01-15T15:14:33.022Z,4.9
2023-01-15T15:15:41.123Z,5.4
2023-01-15T15:16:51.078Z,5.7
2023-01-15T15:17:58.363Z,7.3
2023-01-15T15:19:17.173Z,7.9
2023-01-15T15:20:29.227Z,9.5
2023-01-15T15:21:46.896Z,11.7
2023-01-15T15:22:54.066Z,12.5
2023-01-15T15:24:11.386Z,10.5
2023-01-15T15:25:26.166Z,12.6
2023-01-15T15:26:34.118Z,13.2
2023-01-15T15:27:41.570Z,10.4
2023-01-15T15:28:48.631Z,10.2
2023-01-15T15:29:58.230Z,10.4
2023-01-15T15:31:08.847Z,11.3
2023-01-15T15:32:17.009Z,11.5
2023-01-15T15:33:24.146Z,12
2023-01-15T15:34:36.297Z,10.9
2023-01-15T15:35:43.455Z,10.5
2023-01-15T15:36:50.610Z,9.2
2023-01-15T15:37:57.953Z,10.5
2023-01-15T15:39:06.231Z,11.3
2023-01-15T15:40:23.813Z,10.6
2023-01-15T15:41:35.874Z,10.9
2023-01-15T15:42:48.111Z,11
2023-01-15T15:44:08.408Z,12.2
2023-01-15T15:45:20.718Z,12
2023-01-15T15:46:32.886Z,11.7
2023-01-15T15:47:45.232Z,11.4
2023-01-15T15:49:00.882Z,10.7
2023-01-15T15:50:08.032Z,12.9
2023-01-15T15:51:25.503Z,15.4
2023-01-15T15:52:38.540Z,18.4
2023-01-15T15:53:45.565Z,19.1
2023-01-15T15:54:52.957Z,16.3
2023-01-15T15:56:05.671Z,12.3
2023-01-15T15:57:13.100Z,12.8